createdAt,value
2018-09-11T00:01:06.099Z,4.00
2018-09-11T00:04:10.440Z,4.07
2018-09-11T00:07:14.712Z,3.93
2018-09-11T00:10:18.965Z,3.80
2018-09-11T00:13:23.240Z,3.70
2018-09-11T00:16:27.525Z,3.73
2018-09-11T00:19:31.961Z,3.43
2018-09-11T00:22:36.258Z,3.50
2018-09-11T00:25:40.610Z,3.43
2018-09-11T00:28:44.909Z,3.30
2018-09-11T00:31:49.252Z,3.40
2018-09-11T00:34:53.564Z,3.70
2018-09-11T00:37:57.853Z,3.80
2018-09-11T00:41:02.191Z,3.23
2018-09-11T00:44:06.697Z,3.90
2018-09-11T00:47:11.383Z,2.87
2018-09-11T00:50:15.668Z,3.40
2018-09-11T00:53:20.134Z,3.30
2018-09-11T00:56:24.408Z,3.43
2018-09-11T00:59:28.722Z,3.63
2018-09-11T01:02:33.069Z,3.37
2018-09-11T01:05:37.381Z,3.30
2018-09-11T01:08:41.822Z,3.37
2018-09-11T01:11:46.129Z,3.47
2018-09-11T01:14:50.441Z,3.27
2018-09-11T01:17:54.679Z,3.00
2018-09-11T01:20:58.961Z,3.20
2018-09-11T01:24:03.316Z,2.83
2018-09-11T01:27:07.827Z,3.20
2018-09-11T01:30:12.161Z,3.07
2018-09-11T01:33:16.429Z,3.47
2018-09-11T01:36:20.684Z,3.57
2018-09-11T01:39:25.010Z,3.10
2018-09-11T01:42:29.319Z,3.73
2018-09-11T01:45:33.622Z,3.57
2018-09-11T01:48:37.964Z,4.00
2018-09-11T01:51:42.281Z,3.10
2018-09-11T01:54:46.601Z,2.67
2018-09-11T01:57:50.920Z,2.87
2018-09-11T02:00:55.208Z,2.90
2018-09-11T02:03:59.572Z,3.40
2018-09-11T02:07:03.853Z,3.17
2018-09-11T02:10:08.128Z,2.87
2018-09-11T02:13:12.416Z,3.10
2018-09-11T02:16:16.715Z,3.10
2018-09-11T02:19:20.992Z,2.90
2018-09-11T02:22:25.259Z,3.27
2018-09-11T02:25:29.502Z,2.70
2018-09-11T02:28:33.782Z,2.67
2018-09-11T02:31:38.129Z,3.13
2018-09-11T02:34:42.443Z,3.23
2018-09-11T02:37:46.785Z,3.30
2018-09-11T02:40:51.053Z,3.40
2018-09-11T02:43:55.421Z,3.30
2018-09-11T02:46:59.673Z,2.90
2018-09-11T02:50:04.020Z,3.37
2018-09-11T02:53:08.313Z,3.70
2018-09-11T02:56:12.651Z,3.30
2018-09-11T02:59:17.017Z,3.70
2018-09-11T03:02:21.266Z,3.47
2018-09-11T03:05:25.560Z,4.00
2018-09-11T03:08:29.841Z,3.30
2018-09-11T03:11:34.155Z,3.70
2018-09-11T03:14:38.456Z,3.23
2018-09-11T03:17:42.741Z,3.67
2018-09-11T03:20:46.948Z,4.00
2018-09-11T03:23:51.269Z,4.20
2018-09-11T03:26:55.508Z,4.43
2018-09-11T03:29:59.741Z,3.77
2018-09-11T03:33:04.082Z,4.30
2018-09-11T03:36:08.362Z,4.10
2018-09-11T03:39:12.764Z,5.13
2018-09-11T03:42:17.048Z,4.30
2018-09-11T03:45:21.403Z,4.90
2018-09-11T03:48:25.656Z,3.90
2018-09-11T03:51:30.006Z,4.47
2018-09-11T03:54:34.369Z,4.30
2018-09-11T03:57:38.690Z,4.43
2018-09-11T04:00:42.988Z,5.03
2018-09-11T04:03:47.290Z,5.13
2018-09-11T04:06:51.816Z,4.87
2018-09-11T04:09:56.167Z,5.50
2018-09-11T04:13:00.472Z,4.63
2018-09-11T04:16:04.789Z,5.13
2018-09-11T04:19:09.125Z,5.67
2018-09-11T04:22:13.581Z,5.43
2018-09-11T04:25:17.944Z,4.97
2018-09-11T04:28:22.269Z,5.37
2018-09-11T04:31:26.713Z,5.50
2018-09-11T04:34:30.987Z,5.70
2018-09-11T04:37:35.279Z,5.30
2018-09-11T04:40:39.589Z,6.33
2018-09-11T04:43:43.892Z,5.97
2018-09-11T04:46:48.163Z,6.10
2018-09-11T04:49:52.545Z,6.60
2018-09-11T04:52:56.832Z,7.23
2018-09-11T04:56:01.281Z,6.47
2018-09-11T04:59:05.653Z,7.20
2018-09-11T05:02:09.995Z,6.60
2018-09-11T05:05:14.309Z,7.20
2018-09-11T05:08:18.657Z,7.10
2018-09-11T05:11:22.982Z,7.53
2018-09-11T05:14:27.427Z,7.47
2018-09-11T05:17:31.691Z,7.53
2018-09-11T05:20:36.035Z,7.43
2018-09-11T05:23:40.339Z,7.77
2018-09-11T05:26:44.596Z,7.00
2018-09-11T05:29:48.892Z,6.87
2018-09-11T05:32:53.340Z,7.13
2018-09-11T05:35:57.652Z,6.30
2018-09-11T05:39:02.091Z,6.53
2018-09-11T05:42:06.652Z,6.73
2018-09-11T05:45:10.973Z,6.37
2018-09-11T05:48:15.557Z,5.87
2018-09-11T05:51:19.847Z,5.50
2018-09-11T05:54:24.192Z,5.40
2018-09-11T05:57:28.463Z,4.73
2018-09-11T06:00:32.724Z,4.50
2018-09-11T06:03:37.035Z,5.13
2018-09-11T06:06:41.309Z,4.57
2018-09-11T06:09:45.667Z,5.30
2018-09-11T06:12:49.979Z,4.90
2018-09-11T06:15:54.273Z,5.57
2018-09-11T06:18:58.634Z,6.33
2018-09-11T06:22:02.934Z,6.33
2018-09-11T06:25:07.290Z,7.33
2018-09-11T06:28:11.588Z,7.73
2018-09-11T06:31:15.988Z,7.47
2018-09-11T06:34:20.373Z,7.37
2018-09-11T06:37:24.661Z,8.57
2018-09-11T06:40:28.950Z,9.70
2018-09-11T06:43:33.314Z,9.57
2018-09-11T06:46:37.613Z,10.33
2018-09-11T06:49:41.900Z,11.27
2018-09-11T06:52:47.334Z,12.37
2018-09-11T06:55:51.612Z,13.43
2018-09-11T06:58:55.987Z,15.00
2018-09-11T07:02:00.324Z,14.90
2018-09-11T07:05:04.535Z,16.47
2018-09-11T07:08:08.894Z,17.53
2018-09-11T07:11:13.237Z,17.87
2018-09-11T07:14:17.536Z,17.53
2018-09-11T07:17:21.800Z,18.20
2018-09-11T07:20:26.214Z,20.30
2018-09-11T07:23:30.469Z,20.77
2018-09-11T07:26:34.867Z,20.20
2018-09-11T07:29:39.289Z,19.57
2018-09-11T07:32:43.571Z,18.03
2018-09-11T07:35:47.911Z,20.10
2018-09-11T07:38:52.168Z,20.43
2018-09-11T07:41:56.551Z,18.17
2018-09-11T07:45:00.876Z,17.57
2018-09-11T07:48:05.191Z,18.37
2018-09-11T07:51:09.441Z,18.33
2018-09-11T07:54:13.808Z,19.03
2018-09-11T07:57:18.114Z,17.47
2018-09-11T08:00:22.478Z,14.33
2018-09-11T08:03:26.827Z,16.20
2018-09-11T08:06:31.104Z,15.53
2018-09-11T08:09:35.419Z,14.80
2018-09-11T08:12:39.772Z,14.30
2018-09-11T08:15:44.045Z,13.13
2018-09-11T08:18:48.388Z,13.10
2018-09-11T08:21:52.734Z,11.57
2018-09-11T08:24:57.158Z,12.43
2018-09-11T08:28:01.424Z,10.77
2018-09-11T08:31:05.845Z,9.93
2018-09-11T08:34:10.221Z,10.17
2018-09-11T08:37:14.706Z,10.40
2018-09-11T08:40:19.072Z,10.73
2018-09-11T08:43:23.378Z,10.80
2018-09-11T08:46:27.704Z,10.57
2018-09-11T08:49:32.012Z,11.00
2018-09-11T08:52:36.396Z,11.43
2018-09-11T08:55:40.690Z,12.00
2018-09-11T08:58:45.003Z,13.20
2018-09-11T09:01:49.278Z,12.87
2018-09-11T09:04:53.595Z,12.73
2018-09-11T09:07:57.999Z,12.23
2018-09-11T09:11:02.373Z,12.77
2018-09-11T09:14:06.924Z,11.03
2018-09-11T09:17:11.182Z,11.27
2018-09-11T09:20:15.554Z,13.80
2018-09-11T09:23:20.096Z,12.77
2018-09-11T09:26:24.454Z,13.33
2018-09-11T09:29:28.819Z,12.60
2018-09-11T09:32:33.167Z,12.60
2018-09-11T09:35:37.440Z,12.73
2018-09-11T09:38:41.703Z,13.47
2018-09-11T09:41:46.221Z,12.47
2018-09-11T09:44:50.488Z,13.70
2018-09-11T09:47:54.761Z,13.63
2018-09-11T09:50:59.260Z,13.03
2018-09-11T09:54:03.611Z,13.03
2018-09-11T09:57:07.999Z,13.27
2018-09-11T10:00:12.353Z,13.07
2018-09-11T10:03:16.623Z,12.83
2018-09-11T10:06:20.998Z,12.60
2018-09-11T10:09:25.303Z,11.93
2018-09-11T10:12:29.640Z,12.60
2018-09-11T10:15:33.962Z,10.77
2018-09-11T10:18:38.258Z,11.13
2018-09-11T10:21:42.504Z,11.13
2018-09-11T10:24:46.900Z,9.33
2018-09-11T10:27:51.192Z,10.53
2018-09-11T10:30:55.609Z,11.00
2018-09-11T10:33:59.978Z,9.20
2018-09-11T10:37:04.335Z,9.90
2018-09-11T10:40:08.748Z,8.03
2018-09-11T10:43:13.066Z,6.03
2018-09-11T10:46:17.392Z,5.90
2018-09-11T10:49:21.681Z,4.90
2018-09-11T10:52:25.926Z,4.60
2018-09-11T10:55:30.339Z,4.20
2018-09-11T10:58:34.652Z,3.60
2018-09-11T11:01:38.971Z,3.23
2018-09-11T11:04:43.315Z,3.50
2018-09-11T11:07:47.592Z,3.40
2018-09-11T11:10:51.925Z,3.00
2018-09-11T11:13:56.268Z,3.30
2018-09-11T11:17:00.559Z,3.20
2018-09-11T11:20:04.868Z,3.40
2018-09-11T11:23:09.148Z,3.00
2018-09-11T11:26:13.445Z,2.87
2018-09-11T11:29:17.758Z,3.13
2018-09-11T11:32:22.082Z,3.00
2018-09-11T11:35:26.433Z,3.10
2018-09-11T11:38:30.764Z,2.60
2018-09-11T11:41:35.193Z,2.90
2018-09-11T11:44:39.476Z,3.00
2018-09-11T11:47:43.777Z,3.00
2018-09-11T11:50:48.132Z,3.00
2018-09-11T11:53:52.402Z,2.60
2018-09-11T11:56:56.694Z,3.20
2018-09-11T12:00:00.981Z,2.70
2018-09-11T12:03:05.234Z,2.63
2018-09-11T12:06:09.504Z,2.20
2018-09-11T12:09:13.840Z,2.30
2018-09-11T12:12:18.146Z,2.80
2018-09-11T12:15:22.497Z,2.67
2018-09-11T12:18:26.823Z,2.93
2018-09-11T12:21:31.142Z,3.13
2018-09-11T12:24:35.461Z,2.80
2018-09-11T12:27:39.769Z,2.40
2018-09-11T12:30:44.749Z,1.63
2018-09-11T12:33:49.241Z,2.43
2018-09-11T12:36:53.586Z,2.40
2018-09-11T12:39:57.884Z,2.57
2018-09-11T12:43:02.218Z,2.97
2018-09-11T12:46:06.994Z,3.57
2018-09-11T12:49:11.135Z,2.87
2018-09-11T12:52:15.500Z,3.83
2018-09-11T12:55:19.770Z,3.83
2018-09-11T12:58:24.076Z,4.27
2018-09-11T13:01:28.429Z,4.20
2018-09-11T13:04:32.757Z,3.63
2018-09-11T13:07:37.237Z,4.20
2018-09-11T13:10:41.596Z,4.83
2018-09-11T13:13:45.933Z,4.07
2018-09-11T13:16:50.528Z,3.67
2018-09-11T13:19:54.949Z,3.67
2018-09-11T13:22:59.349Z,3.07
2018-09-11T13:26:03.709Z,3.33
2018-09-11T13:29:08.046Z,3.63
2018-09-11T13:32:12.374Z,4.40
2018-09-11T13:35:16.860Z,4.57
2018-09-11T13:38:21.174Z,3.80
2018-09-11T13:41:25.799Z,4.00
2018-09-11T13:44:30.087Z,4.90
2018-09-11T13:47:34.501Z,4.77
2018-09-11T13:50:38.727Z,4.70
2018-09-11T13:53:43.003Z,5.30
2018-09-11T13:56:47.356Z,4.53
2018-09-11T13:59:51.698Z,3.90
2018-09-11T14:02:56.145Z,4.87
2018-09-11T14:06:00.547Z,4.10
2018-09-11T14:09:08.188Z,3.47
2018-09-11T14:12:12.546Z,3.17
2018-09-11T14:15:16.879Z,2.13
2018-09-11T14:18:21.270Z,1.93
2018-09-11T14:21:25.624Z,2.30
2018-09-11T14:24:29.858Z,2.03
2018-09-11T14:27:34.183Z,2.10
2018-09-11T14:30:38.537Z,2.90
2018-09-11T14:33:42.876Z,2.60
2018-09-11T14:36:47.157Z,2.90
2018-09-11T14:39:51.558Z,3.30
2018-09-11T14:42:55.860Z,2.70
2018-09-11T14:46:00.149Z,2.87
2018-09-11T14:49:04.632Z,3.07
2018-09-11T14:52:08.888Z,2.43
2018-09-11T14:55:13.243Z,2.87
2018-09-11T14:58:17.734Z,2.80
2018-09-11T15:01:22.076Z,3.03
2018-09-11T15:04:26.539Z,2.83
2018-09-11T15:07:30.942Z,3.10
2018-09-11T15:10:35.261Z,3.20
2018-09-11T15:13:39.660Z,3.40
2018-09-11T15:16:43.953Z,3.50
2018-09-11T15:19:48.486Z,3.30
2018-09-11T15:22:52.842Z,3.30
2018-09-11T15:25:57.144Z,2.80
2018-09-11T15:29:01.625Z,2.80
2018-09-11T15:32:05.929Z,3.00
2018-09-11T15:35:10.241Z,3.40
2018-09-11T15:38:14.552Z,3.13
2018-09-11T15:41:18.839Z,2.93
2018-09-11T15:44:23.126Z,3.53
2018-09-11T15:47:27.438Z,3.53
2018-09-11T15:50:31.783Z,3.30
2018-09-11T15:53:36.140Z,3.17
2018-09-11T15:56:40.391Z,3.43
2018-09-11T15:59:44.745Z,3.27
2018-09-11T16:02:49.117Z,3.20
2018-09-11T16:05:53.389Z,3.03
2018-09-11T16:08:57.741Z,3.43
2018-09-11T16:12:02.094Z,2.47
2018-09-11T16:15:06.681Z,2.80
2018-09-11T16:18:11.011Z,3.47
2018-09-11T16:21:15.321Z,2.73
2018-09-11T16:24:19.617Z,2.03
2018-09-11T16:27:23.987Z,2.50
2018-09-11T16:30:28.430Z,3.13
2018-09-11T16:33:32.781Z,2.27
2018-09-11T16:36:37.179Z,2.63
2018-09-11T16:39:41.610Z,3.17
2018-09-11T16:42:45.966Z,2.97
2018-09-11T16:45:50.272Z,2.83
2018-09-11T16:48:54.564Z,3.10
2018-09-11T16:51:58.890Z,3.27
2018-09-11T16:55:03.293Z,2.70
2018-09-11T16:58:07.599Z,2.27
2018-09-11T17:01:11.920Z,2.90
2018-09-11T17:04:16.220Z,2.67
2018-09-11T17:07:20.546Z,2.50
2018-09-11T17:10:24.859Z,2.53
2018-09-11T17:13:29.145Z,2.70
2018-09-11T17:16:33.472Z,2.53
2018-09-11T17:19:37.794Z,2.83
2018-09-11T17:22:42.124Z,3.20
2018-09-11T17:25:46.461Z,3.40
2018-09-11T17:28:50.787Z,2.43
2018-09-11T17:31:55.101Z,2.27
2018-09-11T17:34:59.420Z,2.67
2018-09-11T17:38:03.872Z,2.50
2018-09-11T17:41:08.272Z,2.30
2018-09-11T17:44:12.617Z,1.97
2018-09-11T17:47:16.997Z,1.63
2018-09-11T17:50:21.288Z,1.67
2018-09-11T17:53:25.617Z,2.33
2018-09-11T17:56:30.228Z,2.33
2018-09-11T17:59:34.546Z,2.00
2018-09-11T18:02:38.895Z,2.20
2018-09-11T18:05:43.644Z,2.57
2018-09-11T18:08:47.956Z,1.77
2018-09-11T18:11:52.305Z,2.10
2018-09-11T18:14:56.729Z,2.20
2018-09-11T18:18:01.047Z,2.30
2018-09-11T18:21:05.369Z,2.00
2018-09-11T18:24:09.624Z,2.20
2018-09-11T18:27:14.226Z,2.67
2018-09-11T18:30:18.750Z,2.10
2018-09-11T18:33:23.142Z,2.30
2018-09-11T18:36:27.672Z,2.50
2018-09-11T18:39:32.245Z,2.20
2018-09-11T18:42:36.984Z,2.17
2018-09-11T18:45:41.522Z,2.30
2018-09-11T18:48:46.301Z,2.07
2018-09-11T18:51:52.155Z,2.40
2018-09-11T18:54:57.549Z,2.60
2018-09-11T18:58:02.880Z,2.50
2018-09-11T19:01:08.626Z,2.90
2018-09-11T19:04:13.142Z,2.37
2018-09-11T19:07:17.539Z,2.20
2018-09-11T19:10:23.554Z,2.10
2018-09-11T19:13:27.966Z,2.50
2018-09-11T19:16:32.438Z,2.60
2018-09-11T19:19:36.956Z,2.40
2018-09-11T19:22:41.551Z,2.90
2018-09-11T19:25:46.436Z,2.90
2018-09-11T19:28:50.967Z,2.30
2018-09-11T19:31:55.377Z,2.77
2018-09-11T19:34:59.924Z,3.13
2018-09-11T19:38:04.320Z,2.43
2018-09-11T19:41:08.803Z,3.20
2018-09-11T19:44:13.577Z,2.73
2018-09-11T19:47:18.191Z,2.07
2018-09-11T19:50:22.786Z,2.67
2018-09-11T19:53:27.196Z,3.10
2018-09-11T19:56:31.617Z,3.33
2018-09-11T19:59:36.010Z,3.10
2018-09-11T20:02:40.719Z,2.83
2018-09-11T20:05:45.034Z,3.10
2018-09-11T20:08:49.582Z,3.43
2018-09-11T20:11:53.930Z,2.67
2018-09-11T20:14:58.355Z,3.13
2018-09-11T20:18:02.675Z,3.07
2018-09-11T20:21:06.969Z,3.20
2018-09-11T20:24:11.400Z,2.90
2018-09-11T20:27:15.750Z,3.23
2018-09-11T20:30:20.156Z,2.87
2018-09-11T20:33:25.857Z,3.13
2018-09-11T20:36:31.486Z,2.67
2018-09-11T20:39:36.631Z,2.90
2018-09-11T20:42:41.202Z,2.73
2018-09-11T20:45:45.553Z,3.13
2018-09-11T20:48:49.874Z,2.77
2018-09-11T20:51:54.203Z,2.77
2018-09-11T20:54:58.524Z,2.90
2018-09-11T20:58:04.117Z,2.80
2018-09-11T21:01:08.714Z,2.73
2018-09-11T21:04:13.011Z,3.80
2018-09-11T21:07:17.353Z,3.07
2018-09-11T21:10:21.677Z,2.67
2018-09-11T21:13:26.035Z,3.67
2018-09-11T21:16:30.364Z,3.50
2018-09-11T21:19:34.727Z,2.60
2018-09-11T21:22:39.065Z,3.33
2018-09-11T21:25:43.334Z,3.80
2018-09-11T21:28:47.649Z,2.87
2018-09-11T21:31:51.973Z,3.50
2018-09-11T21:34:56.276Z,2.73
2018-09-11T21:38:00.614Z,2.50
2018-09-11T21:41:04.935Z,2.83
2018-09-11T21:44:09.900Z,3.03
2018-09-11T21:47:15.427Z,2.43
2018-09-11T21:50:19.704Z,3.00
2018-09-11T21:53:24.068Z,2.20
2018-09-11T21:56:28.406Z,2.20
2018-09-11T21:59:32.718Z,2.30
2018-09-11T22:02:37.007Z,3.17
2018-09-11T22:05:41.418Z,2.30
2018-09-11T22:08:45.669Z,2.07
2018-09-11T22:11:50.100Z,2.97
2018-09-11T22:14:54.321Z,3.03
2018-09-11T22:17:58.682Z,3.50
2018-09-11T22:21:02.959Z,2.70
2018-09-11T22:24:07.339Z,3.30
2018-09-11T22:27:11.642Z,3.37
2018-09-11T22:30:16.590Z,2.83
2018-09-11T22:33:20.884Z,3.33
2018-09-11T22:36:25.555Z,2.63
2018-09-11T22:39:29.825Z,2.30
2018-09-11T22:42:34.221Z,3.03
2018-09-11T22:45:38.570Z,3.63
2018-09-11T22:48:42.907Z,3.03
2018-09-11T22:51:47.233Z,2.97
2018-09-11T22:54:51.497Z,3.50
2018-09-11T22:57:55.841Z,3.47
2018-09-11T23:01:00.271Z,3.33
2018-09-11T23:04:04.570Z,3.23
2018-09-11T23:07:08.830Z,3.50
2018-09-11T23:10:13.230Z,2.87
2018-09-11T23:13:17.580Z,3.37
2018-09-11T23:16:21.882Z,3.10
2018-09-11T23:19:26.212Z,4.33
2018-09-11T23:22:30.550Z,3.20
2018-09-11T23:25:34.866Z,2.70
2018-09-11T23:28:39.193Z,3.67
2018-09-11T23:31:43.515Z,3.73
2018-09-11T23:34:47.806Z,3.00
2018-09-11T23:37:52.984Z,3.00
2018-09-11T23:40:57.308Z,3.27
2018-09-11T23:44:02.637Z,4.03
2018-09-11T23:47:06.965Z,3.33
2018-09-11T23:50:11.277Z,3.70
2018-09-11T23:53:15.561Z,3.97
2018-09-11T23:56:20.818Z,3.70
2018-09-11T23:59:25.188Z,3.03
